createdAt,value
2018-08-03T00:00:30.619Z,100389.00
2018-08-03T00:03:01.114Z,100390.00
2018-08-03T00:05:31.403Z,100396.00
2018-08-03T00:08:01.439Z,100402.00
2018-08-03T00:10:31.373Z,100398.00
2018-08-03T00:13:01.661Z,100395.00
2018-08-03T00:15:31.838Z,100392.00
2018-08-03T00:18:02.288Z,100397.00
2018-08-03T00:20:32.512Z,100391.00
2018-08-03T00:23:02.615Z,100391.00
2018-08-03T00:25:35.053Z,100394.00
2018-08-03T00:28:05.193Z,100396.00
2018-08-03T00:30:35.363Z,100397.00
2018-08-03T00:33:05.679Z,100398.00
2018-08-03T00:39:02.452Z,100390.00
2018-08-03T00:41:32.736Z,100397.00
2018-08-03T00:44:02.993Z,100401.00
2018-08-03T00:46:33.286Z,100406.00
2018-08-03T00:49:03.540Z,100405.00
2018-08-03T00:51:34.596Z,100403.00
2018-08-03T00:54:05.033Z,100402.00
2018-08-03T00:56:35.481Z,100397.00
2018-08-03T00:59:05.870Z,100403.00
2018-08-03T01:01:36.213Z,100397.00
2018-08-03T01:04:06.562Z,100406.00
2018-08-03T01:06:36.904Z,100404.00
2018-08-03T01:09:11.405Z,100405.00
2018-08-03T01:11:41.895Z,100408.00
2018-08-03T01:14:12.186Z,100401.00
2018-08-03T01:16:43.115Z,100407.00
2018-08-03T01:19:14.194Z,100408.00
2018-08-03T01:21:45.590Z,100408.00
2018-08-03T01:24:15.672Z,100407.00
2018-08-03T01:26:45.790Z,100398.00
2018-08-03T01:29:16.069Z,100405.00
2018-08-03T01:31:46.154Z,100405.00
2018-08-03T01:34:16.557Z,100412.00
2018-08-03T01:36:46.832Z,100407.00
2018-08-03T01:39:17.220Z,100400.00
2018-08-03T01:41:47.403Z,100392.00
2018-08-03T01:44:17.996Z,100391.00
2018-08-03T01:46:48.258Z,100391.00
2018-08-03T01:49:18.296Z,100393.00
2018-08-03T01:51:48.196Z,100390.00
2018-08-03T01:54:18.314Z,100388.00
2018-08-03T01:56:48.406Z,100390.00
2018-08-03T01:59:18.553Z,100395.00
2018-08-03T02:01:48.744Z,100386.00
2018-08-03T02:04:18.711Z,100390.00
2018-08-03T02:06:48.625Z,100377.00
2018-08-03T02:09:18.806Z,100377.00
2018-08-03T02:11:49.047Z,100391.00
2018-08-03T02:14:20.160Z,100386.00
2018-08-03T02:16:50.025Z,100386.00
2018-08-03T02:19:20.165Z,100393.00
2018-08-03T02:21:50.191Z,100388.00
2018-08-03T02:24:20.361Z,100395.00
2018-08-03T02:26:50.401Z,100393.00
2018-08-03T02:29:20.524Z,100387.00
2018-08-03T02:31:50.746Z,100395.00
2018-08-03T02:34:20.953Z,100393.00
2018-08-03T02:36:51.653Z,100392.00
2018-08-03T02:39:21.708Z,100398.00
2018-08-03T02:41:51.932Z,100397.00
2018-08-03T02:44:23.007Z,100400.00
2018-08-03T02:46:53.000Z,100395.00
2018-08-03T02:49:23.193Z,100403.00
2018-08-03T02:51:53.771Z,100407.00
2018-08-03T02:54:23.841Z,100410.00
2018-08-03T02:56:53.794Z,100414.00
2018-08-03T02:59:23.959Z,100418.00
2018-08-03T03:01:54.394Z,100423.00
2018-08-03T03:04:24.383Z,100423.00
2018-08-03T03:06:55.044Z,100428.00
2018-08-03T03:09:24.913Z,100424.00
2018-08-03T03:11:54.734Z,100426.00
2018-08-03T03:14:24.835Z,100430.00
2018-08-03T03:16:55.109Z,100434.00
2018-08-03T03:19:25.364Z,100426.00
2018-08-03T03:21:55.973Z,100425.00
2018-08-03T03:24:26.086Z,100429.00
2018-08-03T03:26:56.260Z,100415.00
2018-08-03T03:29:26.970Z,100420.00
2018-08-03T03:31:57.232Z,100417.00
2018-08-03T03:34:27.308Z,100419.00
2018-08-03T03:36:57.456Z,100420.00
2018-08-03T03:39:27.878Z,100421.00
2018-08-03T03:41:59.269Z,100415.00
2018-08-03T03:44:29.532Z,100421.00
2018-08-03T03:46:59.527Z,100421.00
2018-08-03T03:49:29.870Z,100420.00
2018-08-03T03:52:00.269Z,100419.00
2018-08-03T03:54:30.347Z,100427.00
2018-08-03T03:57:00.276Z,100429.00
2018-08-03T03:59:30.457Z,100419.00
2018-08-03T04:02:00.678Z,100417.00
2018-08-03T04:04:30.822Z,100421.00
2018-08-03T04:07:00.915Z,100422.00
2018-08-03T04:09:31.085Z,100425.00
2018-08-03T04:12:01.317Z,100422.00
2018-08-03T04:14:31.568Z,100424.00
2018-08-03T04:17:02.523Z,100425.00
2018-08-03T04:19:38.565Z,100428.00
2018-08-03T04:22:08.903Z,100436.00
2018-08-03T04:24:39.363Z,100437.00
2018-08-03T04:27:09.648Z,100433.00
2018-08-03T04:29:39.783Z,100430.00
2018-08-03T04:32:11.899Z,100439.00
2018-08-03T04:34:42.107Z,100435.00
2018-08-03T04:37:12.502Z,100432.00
2018-08-03T04:39:42.455Z,100430.00
2018-08-03T04:42:12.710Z,100439.00
2018-08-03T04:44:43.012Z,100441.00
2018-08-03T04:47:13.277Z,100441.00
2018-08-03T04:49:43.835Z,100440.00
2018-08-03T04:52:14.175Z,100438.00
2018-08-03T04:54:44.356Z,100443.00
2018-08-03T04:57:14.512Z,100444.00
2018-08-03T04:59:44.791Z,100441.00
2018-08-03T05:02:15.093Z,100445.00
2018-08-03T05:04:46.565Z,100442.00
2018-08-03T05:07:16.447Z,100448.00
2018-08-03T05:09:46.484Z,100441.00
2018-08-03T05:12:16.423Z,100452.00
2018-08-03T05:14:46.552Z,100453.00
2018-08-03T05:17:16.865Z,100455.00
2018-08-03T05:19:47.152Z,100453.00
2018-08-03T05:22:17.447Z,100463.00
2018-08-03T05:24:47.736Z,100460.00
2018-08-03T05:27:18.519Z,100452.00
2018-08-03T05:29:48.814Z,100454.00
2018-08-03T05:32:19.056Z,100457.00
2018-08-03T05:34:49.254Z,100457.00
2018-08-03T05:37:19.433Z,100455.00
2018-08-03T05:39:49.394Z,100457.00
2018-08-03T05:42:20.454Z,100463.00
2018-08-03T05:44:51.130Z,100458.00
2018-08-03T05:47:21.461Z,100461.00
2018-08-03T05:49:51.737Z,100464.00
2018-08-03T05:52:22.014Z,100469.00
2018-08-03T05:54:51.915Z,100473.00
2018-08-03T05:57:22.311Z,100476.00
2018-08-03T05:59:52.471Z,100476.00
2018-08-03T06:02:22.766Z,100477.00
2018-08-03T06:04:52.913Z,100479.00
2018-08-03T06:07:23.041Z,100478.00
2018-08-03T06:09:53.334Z,100480.00
2018-08-03T06:12:23.541Z,100477.00
2018-08-03T06:14:53.855Z,100487.00
2018-08-03T06:17:23.819Z,100477.00
2018-08-03T06:19:53.952Z,100488.00
2018-08-03T06:22:23.890Z,100479.00
2018-08-03T06:24:54.223Z,100490.00
2018-08-03T06:27:24.408Z,100489.00
2018-08-03T06:29:54.574Z,100487.00
2018-08-03T06:32:24.673Z,100487.00
2018-08-03T06:34:54.822Z,100485.00
2018-08-03T06:37:25.019Z,100494.00
2018-08-03T06:39:55.165Z,100493.00
2018-08-03T06:42:29.055Z,100493.00
2018-08-03T06:44:59.294Z,100491.00
2018-08-03T06:47:30.047Z,100500.00
2018-08-03T06:50:00.698Z,100497.00
2018-08-03T06:52:32.481Z,100486.00
2018-08-03T06:55:02.672Z,100483.00
2018-08-03T06:57:32.801Z,100492.00
2018-08-03T07:00:02.955Z,100489.00
2018-08-03T07:02:33.035Z,100497.00
2018-08-03T07:05:03.158Z,100496.00
2018-08-03T07:07:34.037Z,100494.00
2018-08-03T07:10:03.922Z,100490.00
2018-08-03T07:12:34.227Z,100497.00
2018-08-03T07:15:04.560Z,100500.00
2018-08-03T07:20:39.180Z,100502.00
2018-08-03T07:23:09.437Z,100511.00
2018-08-03T07:25:39.602Z,100503.00
2018-08-03T07:28:09.855Z,100508.00
2018-08-03T07:30:39.640Z,100505.00
2018-08-03T07:33:09.672Z,100512.00
2018-08-03T07:35:40.202Z,100499.00
2018-08-03T07:38:10.042Z,100505.00
2018-08-03T07:40:40.754Z,100505.00
2018-08-03T07:43:10.981Z,100503.00
2018-08-03T07:45:41.188Z,100501.00
2018-08-03T07:48:11.452Z,100503.00
2018-08-03T07:50:41.771Z,100504.00
2018-08-03T07:53:12.064Z,100500.00
2018-08-03T07:55:42.342Z,100494.00
2018-08-03T07:58:12.552Z,100498.00
2018-08-03T08:00:42.752Z,100493.00
2018-08-03T08:03:13.013Z,100494.00
2018-08-03T08:05:43.211Z,100496.00
2018-08-03T08:08:14.053Z,100499.00
2018-08-03T08:10:43.994Z,100496.00
2018-08-03T08:13:13.871Z,100486.00
2018-08-03T08:15:43.976Z,100488.00
2018-08-03T08:18:14.151Z,100483.00
2018-08-03T08:20:44.119Z,100489.00
2018-08-03T08:23:13.972Z,100488.00
2018-08-03T08:25:44.015Z,100493.00
2018-08-03T08:28:16.868Z,100483.00
2018-08-03T08:30:46.679Z,100476.00
2018-08-03T08:33:16.870Z,100476.00
2018-08-03T08:35:47.110Z,100483.00
2018-08-03T08:38:17.351Z,100476.00
2018-08-03T08:40:48.634Z,100476.00
2018-08-03T08:43:18.599Z,100467.00
2018-08-03T08:45:49.472Z,100470.00
2018-08-03T08:48:19.426Z,100476.00
2018-08-03T08:50:49.279Z,100467.00
2018-08-03T08:53:19.221Z,100479.00
2018-08-03T08:55:49.279Z,100477.00
2018-08-03T08:58:19.543Z,100476.00
2018-08-03T09:00:49.570Z,100483.00
2018-08-03T09:03:19.629Z,100470.00
2018-08-03T09:05:49.905Z,100476.00
2018-08-03T09:08:20.182Z,100476.00
2018-08-03T09:10:50.395Z,100478.00
2018-08-03T09:13:24.570Z,100473.00
2018-08-03T09:15:54.982Z,100472.00
2018-08-03T09:18:25.050Z,100473.00
2018-08-03T09:20:54.941Z,100472.00
2018-08-03T09:23:25.120Z,100467.00
2018-08-03T09:25:55.658Z,100465.00
2018-08-03T09:28:26.649Z,100457.00
2018-08-03T09:30:57.610Z,100460.00
2018-08-03T09:33:28.750Z,100458.00
2018-08-03T09:35:58.967Z,100452.00
2018-08-03T09:38:29.780Z,100454.00
2018-08-03T09:41:00.004Z,100453.00
2018-08-03T09:43:31.558Z,100454.00
2018-08-03T09:46:01.737Z,100443.00
2018-08-03T09:48:31.696Z,100443.00
2018-08-03T09:51:01.949Z,100439.00
2018-08-03T09:53:31.942Z,100436.00
2018-08-03T09:56:01.955Z,100436.00
2018-08-03T09:58:31.947Z,100437.00
2018-08-03T10:01:07.479Z,100428.00
2018-08-03T10:03:37.763Z,100424.00
2018-08-03T10:06:09.547Z,100420.00
2018-08-03T10:08:39.933Z,100423.00
2018-08-03T10:11:10.408Z,100421.00
2018-08-03T10:13:40.471Z,100422.00
2018-08-03T10:16:10.440Z,100416.00
2018-08-03T10:18:40.539Z,100422.00
2018-08-03T10:21:10.855Z,100406.00
2018-08-03T10:23:41.204Z,100411.00
2018-08-03T10:26:13.293Z,100411.00
2018-08-03T10:28:43.898Z,100407.00
2018-08-03T10:31:14.051Z,100402.00
2018-08-03T10:33:44.002Z,100398.00
2018-08-03T10:36:14.114Z,100402.00
2018-08-03T10:38:44.390Z,100395.00
2018-08-03T10:41:14.844Z,100398.00
2018-08-03T10:43:45.038Z,100398.00
2018-08-03T10:46:14.978Z,100392.00
2018-08-03T10:48:45.224Z,100392.00
2018-08-03T10:51:15.209Z,100383.00
2018-08-03T10:53:45.097Z,100378.00
2018-08-03T10:56:15.239Z,100382.00
2018-08-03T10:58:45.339Z,100379.00
2018-08-03T11:01:15.666Z,100378.00
2018-08-03T11:03:45.967Z,100376.00
2018-08-03T11:06:16.263Z,100378.00
2018-08-03T11:08:46.468Z,100370.00
2018-08-03T11:11:16.996Z,100370.00
2018-08-03T11:13:47.419Z,100364.00
2018-08-03T11:16:17.443Z,100359.00
2018-08-03T11:18:47.525Z,100361.00
2018-08-03T11:21:17.449Z,100359.00
2018-08-03T11:23:47.423Z,100362.00
2018-08-03T11:26:17.495Z,100361.00
2018-08-03T11:28:47.627Z,100347.00
2018-08-03T11:31:18.018Z,100358.00
2018-08-03T11:33:48.041Z,100354.00
2018-08-03T11:36:17.930Z,100349.00
2018-08-03T11:38:48.173Z,100346.00
2018-08-03T11:41:19.224Z,100346.00
2018-08-03T11:43:50.440Z,100342.00
2018-08-03T11:46:20.538Z,100339.00
2018-08-03T11:48:50.800Z,100339.00
2018-08-03T11:51:21.153Z,100336.00
2018-08-03T11:53:51.428Z,100331.00
2018-08-03T11:56:21.716Z,100338.00
2018-08-03T11:58:51.787Z,100333.00
2018-08-03T12:01:21.925Z,100319.00
2018-08-03T12:03:52.196Z,100317.00
2018-08-03T12:06:22.591Z,100305.00
2018-08-03T12:08:53.019Z,100312.00
2018-08-03T12:11:23.323Z,100305.00
2018-08-03T12:13:53.564Z,100305.00
2018-08-03T12:16:23.736Z,100305.00
2018-08-03T12:18:53.828Z,100299.00
2018-08-03T12:21:23.978Z,100301.00
2018-08-03T12:23:54.363Z,100306.00
2018-08-03T12:26:24.680Z,100300.00
2018-08-03T12:28:54.926Z,100298.00
2018-08-03T12:31:25.207Z,100296.00
2018-08-03T12:33:55.452Z,100293.00
2018-08-03T12:36:25.666Z,100292.00
2018-08-03T12:38:56.039Z,100292.00
2018-08-03T12:41:26.355Z,100288.00
2018-08-03T12:43:56.599Z,100276.00
2018-08-03T12:46:26.597Z,100275.00
2018-08-03T12:48:56.693Z,100265.00
2018-08-03T12:51:27.092Z,100273.00
2018-08-03T12:53:59.458Z,100270.00
2018-08-03T12:56:29.778Z,100262.00
2018-08-03T12:59:00.070Z,100262.00
2018-08-03T13:01:30.334Z,100266.00
2018-08-03T13:04:00.390Z,100267.00
2018-08-03T13:06:30.536Z,100268.00
2018-08-03T13:09:01.364Z,100259.00
2018-08-03T13:11:31.449Z,100254.00
2018-08-03T13:14:01.514Z,100250.00
2018-08-03T13:16:31.792Z,100249.00
2018-08-03T13:19:02.197Z,100245.00
2018-08-03T13:21:35.239Z,100237.00
2018-08-03T13:24:05.989Z,100241.00
2018-08-03T13:26:36.563Z,100240.00
2018-08-03T13:29:07.130Z,100235.00
2018-08-03T13:31:37.359Z,100228.00
2018-08-03T13:34:07.867Z,100225.00
2018-08-03T13:36:38.398Z,100220.00
2018-08-03T13:39:09.779Z,100225.00
2018-08-03T13:41:39.791Z,100225.00
2018-08-03T13:44:10.043Z,100225.00
2018-08-03T13:46:40.308Z,100210.00
2018-08-03T13:49:11.265Z,100207.00
2018-08-03T13:51:41.521Z,100204.00
2018-08-03T13:54:11.763Z,100202.00
2018-08-03T13:56:42.531Z,100215.00
2018-08-03T13:59:14.194Z,100204.00
2018-08-03T14:02:01.462Z,100209.00
2018-08-03T14:04:31.795Z,100200.00
2018-08-03T14:07:02.150Z,100193.00
2018-08-03T14:09:32.455Z,100192.00
2018-08-03T14:12:02.605Z,100189.00
2018-08-03T14:14:32.816Z,100190.00
2018-08-03T14:17:03.084Z,100188.00
2018-08-03T14:19:33.439Z,100185.00
2018-08-03T14:22:03.846Z,100180.00
2018-08-03T14:24:34.099Z,100181.00
2018-08-03T14:27:05.004Z,100179.00
2018-08-03T14:29:35.044Z,100185.00
2018-08-03T14:32:05.719Z,100182.00
2018-08-03T14:34:35.843Z,100178.00
2018-08-03T14:37:07.173Z,100177.00
2018-08-03T14:39:37.281Z,100167.00
2018-08-03T14:42:07.522Z,100178.00
2018-08-03T14:44:37.626Z,100166.00
2018-08-03T14:47:07.530Z,100167.00
2018-08-03T14:49:37.483Z,100158.00
2018-08-03T14:52:07.548Z,100155.00
2018-08-03T14:54:37.713Z,100148.00
2018-08-03T14:57:15.419Z,100151.00
2018-08-03T14:59:45.393Z,100156.00
2018-08-03T15:02:15.570Z,100150.00
2018-08-03T15:04:45.726Z,100151.00
2018-08-03T15:07:15.925Z,100150.00
2018-08-03T15:09:46.140Z,100140.00
2018-08-03T15:12:16.213Z,100144.00
2018-08-03T15:14:46.369Z,100139.00
2018-08-03T15:17:16.522Z,100138.00
2018-08-03T15:19:48.022Z,100140.00
2018-08-03T15:22:18.046Z,100132.00
2018-08-03T15:24:48.233Z,100129.00
2018-08-03T15:27:18.416Z,100129.00
2018-08-03T15:29:48.608Z,100124.00
2018-08-03T15:32:18.674Z,100127.00
2018-08-03T15:34:48.679Z,100122.00
2018-08-03T15:37:18.936Z,100116.00
2018-08-03T15:39:49.124Z,100118.00
2018-08-03T15:42:19.347Z,100107.00
2018-08-03T15:44:49.347Z,100107.00
2018-08-03T15:47:19.579Z,100100.00
2018-08-03T15:49:49.532Z,100104.00
2018-08-03T15:52:19.663Z,100101.00
2018-08-03T15:54:50.074Z,100097.00
2018-08-03T15:57:19.998Z,100098.00
2018-08-03T15:59:50.273Z,100086.00
2018-08-03T16:02:20.548Z,100088.00
2018-08-03T16:04:50.491Z,100085.00
2018-08-03T16:07:20.278Z,100077.00
2018-08-03T16:09:50.536Z,100070.00
2018-08-03T16:12:20.740Z,100076.00
2018-08-03T16:14:51.021Z,100066.00
2018-08-03T16:17:21.301Z,100070.00
2018-08-03T16:19:51.287Z,100068.00
2018-08-03T16:22:21.488Z,100073.00
2018-08-03T16:24:51.864Z,100067.00
2018-08-03T16:27:22.235Z,100064.00
2018-08-03T16:29:52.528Z,100069.00
2018-08-03T16:32:22.689Z,100060.00
2018-08-03T16:34:53.043Z,100062.00
2018-08-03T16:37:23.223Z,100055.00
2018-08-03T16:39:53.367Z,100062.00
2018-08-03T16:42:23.603Z,100054.00
2018-08-03T16:44:54.121Z,100055.00
2018-08-03T16:47:25.180Z,100060.00
2018-08-03T16:49:56.393Z,100062.00
2018-08-03T16:52:26.812Z,100058.00
2018-08-03T16:54:57.265Z,100062.00
2018-08-03T16:57:27.615Z,100058.00
2018-08-03T16:59:57.849Z,100056.00
2018-08-03T17:02:28.285Z,100058.00
2018-08-03T17:04:59.040Z,100054.00
2018-08-03T17:07:29.272Z,100052.00
2018-08-03T17:09:59.539Z,100048.00
2018-08-03T17:12:29.791Z,100048.00
2018-08-03T17:15:00.633Z,100049.00
2018-08-03T17:17:30.981Z,100049.00
2018-08-03T17:20:02.431Z,100044.00
2018-08-03T17:22:32.682Z,100033.00
2018-08-03T17:25:03.105Z,100045.00
2018-08-03T17:27:34.024Z,100044.00
2018-08-03T17:30:05.051Z,100042.00
2018-08-03T17:32:35.236Z,100041.00
2018-08-03T17:35:05.649Z,100035.00
2018-08-03T17:37:35.807Z,100047.00
2018-08-03T17:40:05.985Z,100048.00
2018-08-03T17:42:36.192Z,100047.00
2018-08-03T17:45:06.494Z,100047.00
2018-08-03T17:47:36.466Z,100055.00
2018-08-03T17:50:06.693Z,100059.00
2018-08-03T17:52:36.917Z,100056.00
2018-08-03T17:55:06.907Z,100061.00
2018-08-03T17:57:37.101Z,100058.00
2018-08-03T18:00:07.984Z,100057.00
2018-08-03T18:02:38.027Z,100058.00
2018-08-03T18:05:08.064Z,100063.00
2018-08-03T18:07:38.424Z,100063.00
2018-08-03T18:10:09.088Z,100064.00
2018-08-03T18:12:39.543Z,100064.00
2018-08-03T18:15:09.930Z,100065.00
2018-08-03T18:17:41.009Z,100067.00
2018-08-03T18:20:11.394Z,100073.00
2018-08-03T18:22:41.618Z,100061.00
2018-08-03T18:25:11.926Z,100060.00
2018-08-03T18:27:42.149Z,100063.00
2018-08-03T18:30:12.074Z,100062.00
2018-08-03T18:32:41.916Z,100058.00
2018-08-03T18:35:11.735Z,100065.00
2018-08-03T18:37:41.506Z,100066.00
2018-08-03T18:40:11.940Z,100060.00
2018-08-03T18:42:42.131Z,100059.00
2018-08-03T18:45:12.067Z,100062.00
2018-08-03T18:47:42.055Z,100065.00
2018-08-03T18:50:12.067Z,100059.00
2018-08-03T18:52:42.223Z,100061.00
2018-08-03T18:55:12.421Z,100058.00
2018-08-03T18:57:42.582Z,100064.00
2018-08-03T19:00:12.656Z,100066.00
2018-08-03T19:02:42.759Z,100065.00
2018-08-03T19:05:12.720Z,100066.00
2018-08-03T19:07:42.797Z,100070.00
2018-08-03T19:10:13.126Z,100066.00
2018-08-03T19:12:43.317Z,100074.00
2018-08-03T19:15:13.716Z,100078.00
2018-08-03T19:17:43.887Z,100077.00
2018-08-03T19:20:14.186Z,100073.00
2018-08-03T19:22:44.448Z,100070.00
2018-08-03T19:25:14.670Z,100081.00
2018-08-03T19:27:44.885Z,100080.00
2018-08-03T19:30:15.121Z,100076.00
2018-08-03T19:32:45.435Z,100068.00
2018-08-03T19:35:15.572Z,100068.00
2018-08-03T19:37:45.896Z,100075.00
2018-08-03T19:40:16.052Z,100067.00
2018-08-03T19:42:46.012Z,100077.00
2018-08-03T19:45:15.914Z,100068.00
2018-08-03T19:47:45.838Z,100074.00
2018-08-03T19:50:16.145Z,100066.00
2018-08-03T19:52:46.455Z,100079.00
2018-08-03T19:55:17.508Z,100079.00
2018-08-03T19:57:47.470Z,100073.00
2018-08-03T20:00:17.646Z,100074.00
2018-08-03T20:02:47.586Z,100070.00
2018-08-03T20:05:17.746Z,100069.00
2018-08-03T20:07:48.056Z,100066.00
2018-08-03T20:10:18.360Z,100067.00
2018-08-03T20:12:48.686Z,100064.00
2018-08-03T20:15:18.622Z,100070.00
2018-08-03T20:17:48.748Z,100067.00
2018-08-03T20:20:18.885Z,100070.00
2018-08-03T20:22:48.714Z,100079.00
2018-08-03T20:25:18.848Z,100063.00
2018-08-03T20:27:49.112Z,100073.00
2018-08-03T20:30:19.436Z,100075.00
2018-08-03T20:32:49.704Z,100076.00
2018-08-03T20:35:20.189Z,100078.00
2018-08-03T20:37:50.440Z,100078.00
2018-08-03T20:40:20.718Z,100077.00
2018-08-03T20:42:51.142Z,100064.00
2018-08-03T20:45:21.320Z,100074.00
2018-08-03T20:47:51.494Z,100075.00
2018-08-03T20:50:21.420Z,100077.00
2018-08-03T20:52:51.536Z,100070.00
2018-08-03T20:55:21.754Z,100070.00
2018-08-03T20:57:51.985Z,100064.00
2018-08-03T21:00:22.695Z,100073.00
2018-08-03T21:02:53.313Z,100077.00
2018-08-03T21:05:23.495Z,100080.00
2018-08-03T21:07:54.042Z,100084.00
2018-08-03T21:10:24.051Z,100081.00
2018-08-03T21:12:54.151Z,100080.00
2018-08-03T21:15:24.470Z,100076.00
2018-08-03T21:17:54.701Z,100082.00
2018-08-03T21:20:24.504Z,100088.00
2018-08-03T21:29:53.750Z,100097.00
2018-08-03T21:35:15.601Z,100088.00
2018-08-03T21:37:45.901Z,100088.00
2018-08-03T21:40:16.064Z,100089.00
2018-08-03T21:42:51.969Z,100094.00
2018-08-03T21:45:22.121Z,100089.00
2018-08-03T21:47:53.635Z,100087.00
2018-08-03T21:50:23.783Z,100091.00
2018-08-03T21:52:53.907Z,100088.00
2018-08-03T21:55:25.036Z,100084.00
2018-08-03T21:57:55.566Z,100096.00
2018-08-03T22:00:25.558Z,100090.00
2018-08-03T22:02:55.556Z,100089.00
2018-08-03T22:05:25.484Z,100091.00
2018-08-03T22:07:55.216Z,100094.00
2018-08-03T22:10:25.232Z,100096.00
2018-08-03T22:12:55.354Z,100092.00
2018-08-03T22:15:26.611Z,100087.00
2018-08-03T22:18:03.740Z,100093.00
2018-08-03T22:20:35.095Z,100084.00
2018-08-03T22:23:04.961Z,100089.00
2018-08-03T22:25:35.108Z,100086.00
2018-08-03T22:28:05.367Z,100091.00
2018-08-03T22:30:41.078Z,100088.00
2018-08-03T22:33:11.570Z,100092.00
2018-08-03T22:35:41.780Z,100088.00
2018-08-03T22:38:12.737Z,100083.00
2018-08-03T22:43:30.811Z,100086.00
2018-08-03T22:46:02.237Z,100089.00
2018-08-03T22:48:32.131Z,100085.00
2018-08-03T22:53:42.592Z,100082.00
2018-08-03T22:56:12.717Z,100081.00
2018-08-03T22:58:43.089Z,100075.00
2018-08-03T23:01:24.174Z,100081.00
2018-08-03T23:04:05.761Z,100075.00
2018-08-03T23:06:36.228Z,100074.00
2018-08-03T23:09:22.796Z,100075.00
2018-08-03T23:12:04.004Z,100074.00
2018-08-03T23:14:34.129Z,100068.00
2018-08-03T23:17:04.229Z,100067.00
2018-08-03T23:19:34.308Z,100065.00
2018-08-03T23:22:04.422Z,100070.00
2018-08-03T23:24:34.512Z,100063.00
2018-08-03T23:27:05.241Z,100054.00
2018-08-03T23:29:35.990Z,100061.00
2018-08-03T23:32:06.104Z,100066.00
2018-08-03T23:34:36.197Z,100059.00
2018-08-03T23:37:06.084Z,100059.00
2018-08-03T23:39:36.088Z,100054.00
2018-08-03T23:42:06.352Z,100054.00
2018-08-03T23:44:36.480Z,100052.00
2018-08-03T23:47:06.438Z,100050.00
2018-08-03T23:49:36.401Z,100048.00
2018-08-03T23:52:06.781Z,100050.00
2018-08-03T23:57:24.928Z,100039.00
2018-08-03T23:59:54.951Z,100039.00
